createdAt,value
2023-04-16T00:00:19.412Z,522.00
2023-04-16T00:01:19.471Z,523.00
2023-04-16T00:02:19.601Z,524.00
2023-04-16T00:03:19.728Z,524.00
2023-04-16T00:04:19.667Z,523.00
2023-04-16T00:05:19.610Z,523.00
2023-04-16T00:06:19.665Z,521.00
2023-04-16T00:07:19.707Z,523.00
2023-04-16T00:08:19.820Z,526.00
2023-04-16T00:09:19.801Z,526.00
2023-04-16T00:10:19.856Z,525.00
2023-04-16T00:11:19.877Z,522.00
2023-04-16T00:12:19.901Z,522.00
2023-04-16T00:13:19.923Z,522.00
2023-04-16T00:14:19.989Z,524.00
2023-04-16T00:15:20.024Z,524.00
2023-04-16T00:16:20.079Z,522.00
2023-04-16T00:17:20.187Z,523.00
2023-04-16T00:18:20.180Z,523.00
2023-04-16T00:19:20.216Z,522.00
2023-04-16T00:20:20.213Z,524.00
2023-04-16T00:21:20.251Z,520.00
2023-04-16T00:22:20.292Z,518.00
2023-04-16T00:23:20.328Z,518.00
2023-04-16T00:24:20.357Z,520.00
2023-04-16T00:25:20.427Z,520.00
2023-04-16T00:26:20.458Z,519.00
2023-04-16T00:27:20.497Z,519.00
2023-04-16T00:28:20.572Z,522.00
2023-04-16T00:29:20.570Z,522.00
2023-04-16T00:30:20.640Z,523.00
2023-04-16T00:31:20.623Z,522.00
2023-04-16T00:32:20.722Z,521.00
2023-04-16T00:33:20.733Z,522.00
2023-04-16T00:34:20.733Z,522.00
2023-04-16T00:35:20.765Z,524.00
2023-04-16T00:36:20.824Z,524.00
2023-04-16T00:37:20.852Z,523.00
2023-04-16T00:38:20.920Z,523.00
2023-04-16T00:39:20.947Z,523.00
2023-04-16T00:40:20.945Z,523.00
2023-04-16T00:41:20.989Z,523.00
2023-04-16T00:42:21.023Z,526.00
2023-04-16T00:43:21.058Z,525.00
2023-04-16T00:44:21.068Z,525.00
2023-04-16T00:45:21.100Z,524.00
2023-04-16T00:46:21.244Z,523.00
2023-04-16T00:47:21.269Z,524.00
2023-04-16T00:48:21.217Z,522.00
2023-04-16T00:49:21.243Z,521.00
2023-04-16T00:50:21.289Z,520.00
2023-04-16T00:51:21.305Z,520.00
2023-04-16T00:52:21.375Z,520.00
2023-04-16T00:53:21.379Z,520.00
2023-04-16T00:54:21.389Z,521.00
2023-04-16T00:55:21.419Z,522.00
2023-04-16T00:56:22.261Z,522.00
2023-04-16T00:57:21.594Z,524.00
2023-04-16T00:58:21.550Z,523.00
2023-04-16T00:59:21.579Z,523.00
2023-04-16T01:00:21.605Z,523.00
2023-04-16T01:01:21.689Z,523.00
2023-04-16T01:02:21.716Z,523.00
2023-04-16T01:03:21.835Z,521.00
2023-04-16T01:04:21.817Z,520.00
2023-04-16T01:05:21.780Z,523.00
2023-04-16T01:06:21.794Z,526.00
2023-04-16T01:07:21.840Z,525.00
2023-04-16T01:08:21.889Z,520.00
2023-04-16T01:09:21.940Z,519.00
2023-04-16T01:10:21.964Z,525.00
2023-04-16T01:11:21.998Z,525.00
2023-04-16T01:12:22.067Z,524.00
2023-04-16T01:13:22.073Z,523.00
2023-04-16T01:14:22.125Z,521.00
2023-04-16T01:15:22.132Z,522.00
2023-04-16T01:16:22.275Z,523.00
2023-04-16T01:17:22.218Z,525.00
2023-04-16T01:18:22.272Z,521.00
2023-04-16T01:19:22.305Z,523.00
2023-04-16T01:20:22.356Z,527.00
2023-04-16T01:21:22.390Z,529.00
2023-04-16T01:22:22.413Z,526.00
2023-04-16T01:23:22.441Z,523.00
2023-04-16T01:24:22.474Z,521.00
2023-04-16T01:25:22.502Z,524.00
2023-04-16T01:26:22.618Z,528.00
2023-04-16T01:27:22.662Z,528.00
2023-04-16T01:28:22.656Z,529.00
2023-04-16T01:29:22.682Z,529.00
2023-04-16T01:30:22.735Z,528.00
2023-04-16T01:31:22.803Z,527.00
2023-04-16T01:32:22.826Z,526.00
2023-04-16T01:33:22.893Z,525.00
2023-04-16T01:34:22.873Z,525.00
2023-04-16T01:35:22.913Z,524.00
2023-04-16T01:36:22.953Z,527.00
2023-04-16T01:37:22.995Z,528.00
2023-04-16T01:38:23.038Z,529.00
2023-04-16T01:39:23.059Z,530.00
2023-04-16T01:40:23.103Z,527.00
2023-04-16T01:41:23.119Z,526.00
2023-04-16T01:42:23.189Z,526.00
2023-04-16T01:43:23.201Z,524.00
2023-04-16T01:44:23.273Z,526.00
2023-04-16T01:45:23.306Z,523.00
2023-04-16T01:46:23.389Z,520.00
2023-04-16T01:47:23.431Z,522.00
2023-04-16T01:48:23.425Z,521.00
2023-04-16T01:49:23.456Z,521.00
2023-04-16T01:50:23.506Z,522.00
2023-04-16T01:51:23.500Z,521.00
2023-04-16T01:52:23.589Z,523.00
2023-04-16T01:53:23.606Z,522.00
2023-04-16T01:54:23.658Z,524.00
2023-04-16T01:55:23.694Z,526.00
2023-04-16T01:56:23.727Z,524.00
2023-04-16T01:57:23.804Z,521.00
2023-04-16T01:58:23.887Z,519.00
2023-04-16T01:59:23.858Z,516.00
2023-04-16T02:00:23.893Z,515.00
2023-04-16T02:01:24.014Z,514.00
2023-04-16T02:02:24.069Z,515.00
2023-04-16T02:03:24.132Z,516.00
2023-04-16T02:04:24.102Z,516.00
2023-04-16T02:05:24.123Z,514.00
2023-04-16T02:06:24.139Z,517.00
2023-04-16T02:07:24.189Z,516.00
2023-04-16T02:08:24.235Z,515.00
2023-04-16T02:09:24.240Z,515.00
2023-04-16T02:10:24.309Z,512.00
2023-04-16T02:11:24.365Z,510.00
2023-04-16T02:12:24.375Z,510.00
2023-04-16T02:13:24.448Z,512.00
2023-04-16T02:14:24.465Z,512.00
2023-04-16T02:15:24.522Z,511.00
2023-04-16T02:16:24.588Z,512.00
2023-04-16T02:17:24.614Z,514.00
2023-04-16T02:18:24.665Z,517.00
2023-04-16T02:19:24.662Z,517.00
2023-04-16T02:20:24.738Z,516.00
2023-04-16T02:21:24.766Z,515.00
2023-04-16T02:22:24.797Z,515.00
2023-04-16T02:23:24.855Z,513.00
2023-04-16T02:24:24.861Z,515.00
2023-04-16T02:25:24.940Z,515.00
2023-04-16T02:26:25.002Z,516.00
2023-04-16T02:27:25.019Z,518.00
2023-04-16T02:28:25.051Z,521.00
2023-04-16T02:29:25.091Z,520.00
2023-04-16T02:30:25.149Z,518.00
2023-04-16T02:31:25.208Z,517.00
2023-04-16T02:32:25.223Z,516.00
2023-04-16T02:33:25.258Z,513.00
2023-04-16T02:34:25.304Z,512.00
2023-04-16T02:35:25.341Z,512.00
2023-04-16T02:36:25.387Z,513.00
2023-04-16T02:37:25.464Z,513.00
2023-04-16T02:38:25.488Z,511.00
2023-04-16T02:39:25.557Z,512.00
2023-04-16T02:40:25.595Z,513.00
2023-04-16T02:41:25.615Z,511.00
2023-04-16T02:42:25.653Z,509.00
2023-04-16T02:43:25.695Z,508.00
2023-04-16T02:44:25.748Z,508.00
2023-04-16T02:45:25.798Z,511.00
2023-04-16T02:46:25.873Z,511.00
2023-04-16T02:47:25.892Z,513.00
2023-04-16T02:48:25.948Z,512.00
2023-04-16T02:49:25.975Z,512.00
2023-04-16T02:50:25.990Z,512.00
2023-04-16T02:51:26.054Z,514.00
2023-04-16T02:52:26.108Z,516.00
2023-04-16T02:53:26.194Z,515.00
2023-04-16T02:54:26.217Z,515.00
2023-04-16T02:55:26.259Z,514.00
2023-04-16T02:56:26.296Z,515.00
2023-04-16T02:57:26.352Z,514.00
2023-04-16T02:58:26.419Z,517.00
2023-04-16T02:59:26.465Z,516.00
2023-04-16T03:00:26.486Z,515.00
2023-04-16T03:01:26.596Z,513.00
2023-04-16T03:02:26.635Z,512.00
2023-04-16T03:03:26.691Z,512.00
2023-04-16T03:04:26.761Z,512.00
2023-04-16T03:05:26.776Z,514.00
2023-04-16T03:06:26.812Z,516.00
2023-04-16T03:07:26.874Z,516.00
2023-04-16T03:08:27.386Z,517.00
2023-04-16T03:09:26.961Z,516.00
2023-04-16T03:10:27.001Z,515.00
2023-04-16T03:11:27.071Z,512.00
2023-04-16T03:12:27.125Z,515.00
2023-04-16T03:13:27.187Z,515.00
2023-04-16T03:14:27.245Z,519.00
2023-04-16T03:15:27.336Z,517.00
2023-04-16T03:16:27.336Z,518.00
2023-04-16T03:17:27.447Z,517.00
2023-04-16T03:18:27.481Z,514.00
2023-04-16T03:19:27.484Z,514.00
2023-04-16T03:20:28.370Z,515.00
2023-04-16T03:21:27.555Z,516.00
2023-04-16T03:22:27.657Z,516.00
2023-04-16T03:23:27.658Z,515.00
2023-04-16T03:24:27.739Z,517.00
2023-04-16T03:25:27.799Z,514.00
2023-04-16T03:26:27.839Z,515.00
2023-04-16T03:27:27.898Z,512.00
2023-04-16T03:28:27.926Z,510.00
2023-04-16T03:29:27.986Z,508.00
2023-04-16T03:30:28.023Z,507.00
2023-04-16T03:31:28.145Z,508.00
2023-04-16T03:32:28.184Z,510.00
2023-04-16T03:33:28.246Z,513.00
2023-04-16T03:34:28.263Z,511.00
2023-04-16T03:35:28.317Z,508.00
2023-04-16T03:36:28.342Z,511.00
2023-04-16T03:37:28.395Z,512.00
2023-04-16T03:38:28.436Z,514.00
2023-04-16T03:39:28.498Z,515.00
2023-04-16T03:40:28.546Z,515.00
2023-04-16T03:41:28.633Z,515.00
2023-04-16T03:42:28.637Z,516.00
2023-04-16T03:43:28.695Z,515.00
2023-04-16T03:44:28.752Z,514.00
2023-04-16T03:45:28.788Z,511.00
2023-04-16T03:46:28.892Z,510.00
2023-04-16T03:47:28.921Z,511.00
2023-04-16T03:48:28.929Z,511.00
2023-04-16T03:49:29.024Z,511.00
2023-04-16T03:50:29.031Z,508.00
2023-04-16T03:51:29.059Z,511.00
2023-04-16T03:52:29.197Z,512.00
2023-04-16T03:53:29.172Z,513.00
2023-04-16T03:54:29.218Z,513.00
2023-04-16T03:55:29.255Z,511.00
2023-04-16T03:56:29.317Z,509.00
2023-04-16T03:57:29.350Z,509.00
2023-04-16T03:58:29.437Z,510.00
2023-04-16T03:59:29.444Z,507.00
2023-04-16T04:00:29.513Z,506.00
2023-04-16T04:01:29.546Z,508.00
2023-04-16T04:02:29.729Z,510.00
2023-04-16T04:03:30.043Z,510.00
2023-04-16T04:04:29.872Z,508.00
2023-04-16T04:05:29.777Z,507.00
2023-04-16T04:06:29.804Z,509.00
2023-04-16T04:07:29.879Z,508.00
2023-04-16T04:08:29.962Z,509.00
2023-04-16T04:09:30.023Z,512.00
2023-04-16T04:10:30.036Z,513.00
2023-04-16T04:11:30.122Z,513.00
2023-04-16T04:12:30.167Z,511.00
2023-04-16T04:13:30.227Z,512.00
2023-04-16T04:14:30.268Z,511.00
2023-04-16T04:15:30.316Z,508.00
2023-04-16T04:16:30.407Z,510.00
2023-04-16T04:17:30.448Z,509.00
2023-04-16T04:18:30.458Z,508.00
2023-04-16T04:19:30.524Z,508.00
2023-04-16T04:20:30.523Z,507.00
2023-04-16T04:21:30.557Z,505.00
2023-04-16T04:22:30.617Z,506.00
2023-04-16T04:23:30.641Z,503.00
2023-04-16T04:24:30.699Z,501.00
2023-04-16T04:25:30.754Z,503.00
2023-04-16T04:26:30.865Z,502.00
2023-04-16T04:27:30.850Z,502.00
2023-04-16T04:28:30.891Z,504.00
2023-04-16T04:29:30.936Z,506.00
2023-04-16T04:30:30.984Z,506.00
2023-04-16T04:31:31.076Z,504.00
2023-04-16T04:32:31.153Z,504.00
2023-04-16T04:33:31.153Z,503.00
2023-04-16T04:34:31.179Z,501.00
2023-04-16T04:35:31.226Z,502.00
2023-04-16T04:36:31.265Z,502.00
2023-04-16T04:37:31.330Z,504.00
2023-04-16T04:38:31.409Z,504.00
2023-04-16T04:39:31.466Z,503.00
2023-04-16T04:40:31.496Z,505.00
2023-04-16T04:41:31.570Z,505.00
2023-04-16T04:42:31.645Z,505.00
2023-04-16T04:43:31.651Z,504.00
2023-04-16T04:44:31.718Z,504.00
2023-04-16T04:45:32.023Z,503.00
2023-04-16T04:46:31.853Z,504.00
2023-04-16T04:47:31.905Z,506.00
2023-04-16T04:48:31.964Z,506.00
2023-04-16T04:49:31.986Z,506.00
2023-04-16T04:50:32.032Z,504.00
2023-04-16T04:51:32.050Z,508.00
2023-04-16T04:52:32.130Z,509.00
2023-04-16T04:53:32.176Z,508.00
2023-04-16T04:54:32.264Z,508.00
2023-04-16T04:55:32.279Z,509.00
2023-04-16T04:56:32.326Z,509.00
2023-04-16T04:57:32.397Z,509.00
2023-04-16T04:58:32.448Z,509.00
2023-04-16T04:59:32.488Z,509.00
2023-04-16T05:00:32.550Z,509.00
2023-04-16T05:01:32.643Z,512.00
2023-04-16T05:02:32.698Z,512.00
2023-04-16T05:03:32.764Z,512.00
2023-04-16T05:04:32.839Z,512.00
2023-04-16T05:05:32.778Z,508.00
2023-04-16T05:06:32.846Z,508.00
2023-04-16T05:07:32.910Z,509.00
2023-04-16T05:08:32.946Z,508.00
2023-04-16T05:09:33.029Z,510.00
2023-04-16T05:10:33.036Z,511.00
2023-04-16T05:11:33.076Z,511.00
2023-04-16T05:12:33.156Z,513.00
2023-04-16T05:13:33.200Z,511.00
2023-04-16T05:14:33.212Z,512.00
2023-04-16T05:15:33.272Z,514.00
2023-04-16T05:16:33.341Z,514.00
2023-04-16T05:17:33.355Z,515.00
2023-04-16T05:18:33.477Z,512.00
2023-04-16T05:19:33.473Z,513.00
2023-04-16T05:20:33.535Z,513.00
2023-04-16T05:21:33.584Z,514.00
2023-04-16T05:22:33.622Z,514.00
2023-04-16T05:23:33.689Z,514.00
2023-04-16T05:24:33.747Z,514.00
2023-04-16T05:25:33.809Z,511.00
2023-04-16T05:26:33.850Z,510.00
2023-04-16T05:27:33.915Z,509.00
2023-04-16T05:28:33.960Z,508.00
2023-04-16T05:29:34.013Z,511.00
2023-04-16T05:30:34.110Z,512.00
2023-04-16T05:31:34.126Z,513.00
2023-04-16T05:32:34.193Z,512.00
2023-04-16T05:33:34.261Z,509.00
2023-04-16T05:34:34.281Z,511.00
2023-04-16T05:35:34.357Z,510.00
2023-04-16T05:36:34.411Z,507.00
2023-04-16T05:37:34.479Z,509.00
2023-04-16T05:38:34.552Z,509.00
2023-04-16T05:39:34.579Z,507.00
2023-04-16T05:40:34.641Z,506.00
2023-04-16T05:41:34.703Z,503.00
2023-04-16T05:42:34.718Z,504.00
2023-04-16T05:43:34.784Z,505.00
2023-04-16T05:44:34.829Z,505.00
2023-04-16T05:45:34.860Z,503.00
2023-04-16T05:46:35.026Z,501.00
2023-04-16T05:47:34.986Z,505.00
2023-04-16T05:48:35.032Z,506.00
2023-04-16T05:49:35.096Z,504.00
2023-04-16T05:50:35.177Z,504.00
2023-04-16T05:51:35.177Z,506.00
2023-04-16T05:52:35.230Z,505.00
2023-04-16T05:53:35.303Z,504.00
2023-04-16T05:54:35.315Z,504.00
2023-04-16T05:55:35.442Z,504.00
2023-04-16T05:56:35.433Z,504.00
2023-04-16T05:57:35.544Z,504.00
2023-04-16T05:58:35.568Z,504.00
2023-04-16T05:59:35.632Z,502.00
2023-04-16T06:00:35.700Z,500.00
2023-04-16T06:01:35.724Z,500.00
2023-04-16T06:02:35.919Z,502.00
2023-04-16T06:03:35.932Z,502.00
2023-04-16T06:04:35.897Z,501.00
2023-04-16T06:05:36.568Z,503.00
2023-04-16T06:06:36.004Z,503.00
2023-04-16T06:07:36.025Z,503.00
2023-04-16T06:08:36.072Z,500.00
2023-04-16T06:09:36.164Z,501.00
2023-04-16T06:10:36.201Z,505.00
2023-04-16T06:11:36.537Z,508.00
2023-04-16T06:12:36.314Z,507.00
2023-04-16T06:13:36.321Z,504.00
2023-04-16T06:14:36.382Z,504.00
2023-04-16T06:15:36.418Z,504.00
2023-04-16T06:16:36.465Z,503.00
2023-04-16T06:17:36.559Z,501.00
2023-04-16T06:18:36.582Z,501.00
2023-04-16T06:19:36.657Z,501.00
2023-04-16T06:20:36.689Z,502.00
2023-04-16T06:21:36.734Z,502.00
2023-04-16T06:22:36.839Z,500.00
2023-04-16T06:23:36.836Z,499.00
2023-04-16T06:24:36.923Z,501.00
2023-04-16T06:25:36.962Z,501.00
2023-04-16T06:26:36.978Z,499.00
2023-04-16T06:27:37.038Z,501.00
2023-04-16T06:28:37.067Z,499.00
2023-04-16T06:29:41.156Z,501.00
2023-04-16T06:30:37.102Z,499.00
2023-04-16T06:31:37.154Z,497.00
2023-04-16T06:32:37.147Z,498.00
2023-04-16T06:33:37.110Z,500.00
2023-04-16T06:34:37.087Z,501.00
2023-04-16T06:35:37.101Z,497.00
2023-04-16T06:36:37.048Z,495.00
2023-04-16T06:37:37.060Z,493.00
2023-04-16T06:38:37.077Z,493.00
2023-04-16T06:39:37.072Z,492.00
2023-04-16T06:40:37.058Z,493.00
2023-04-16T06:41:37.020Z,491.00
2023-04-16T06:42:37.026Z,490.00
2023-04-16T06:43:37.072Z,492.00
2023-04-16T06:44:37.167Z,491.00
2023-04-16T06:45:37.191Z,490.00
2023-04-16T06:46:37.322Z,491.00
2023-04-16T06:47:37.307Z,488.00
2023-04-16T06:48:37.380Z,488.00
2023-04-16T06:49:37.400Z,489.00
2023-04-16T06:50:37.457Z,489.00
2023-04-16T06:51:37.489Z,488.00
2023-04-16T06:52:37.565Z,489.00
2023-04-16T06:53:37.625Z,490.00
2023-04-16T06:54:37.650Z,491.00
2023-04-16T06:55:37.686Z,493.00
2023-04-16T06:56:37.758Z,493.00
2023-04-16T06:57:37.877Z,492.00
2023-04-16T06:58:37.860Z,493.00
2023-04-16T06:59:37.943Z,496.00
2023-04-16T07:00:38.071Z,499.00
2023-04-16T07:01:38.015Z,501.00
2023-04-16T07:02:38.229Z,503.00
2023-04-16T07:03:38.259Z,505.00
2023-04-16T07:04:38.198Z,503.00
2023-04-16T07:05:38.232Z,501.00
2023-04-16T07:06:38.325Z,500.00
2023-04-16T07:07:38.343Z,498.00
2023-04-16T07:08:38.435Z,498.00
2023-04-16T07:09:38.480Z,498.00
2023-04-16T07:10:38.556Z,498.00
2023-04-16T07:11:38.565Z,499.00
2023-04-16T07:12:38.589Z,498.00
2023-04-16T07:13:38.622Z,496.00
2023-04-16T07:14:38.690Z,496.00
2023-04-16T07:15:38.762Z,497.00
2023-04-16T07:16:38.778Z,497.00
2023-04-16T07:17:38.881Z,499.00
2023-04-16T07:18:38.872Z,500.00
2023-04-16T07:19:38.924Z,501.00
2023-04-16T07:20:38.966Z,502.00
2023-04-16T07:21:39.022Z,501.00
2023-04-16T07:22:39.071Z,501.00
2023-04-16T07:23:39.149Z,501.00
2023-04-16T07:24:39.153Z,501.00
2023-04-16T07:25:39.380Z,503.00
2023-04-16T07:26:39.286Z,502.00
2023-04-16T07:27:39.330Z,502.00
2023-04-16T07:28:39.373Z,502.00
2023-04-16T07:29:39.396Z,502.00
2023-04-16T07:30:39.455Z,501.00
2023-04-16T07:31:39.530Z,501.00
2023-04-16T07:32:39.571Z,504.00
2023-04-16T07:33:39.592Z,506.00
2023-04-16T07:34:39.624Z,509.00
2023-04-16T07:35:39.701Z,509.00
2023-04-16T07:36:39.784Z,508.00
2023-04-16T07:37:39.792Z,507.00
2023-04-16T07:38:39.843Z,508.00
2023-04-16T07:39:40.519Z,507.00
2023-04-16T07:40:39.909Z,504.00
2023-04-16T07:41:39.935Z,503.00
2023-04-16T07:42:40.035Z,502.00
2023-04-16T07:43:40.075Z,502.00
2023-04-16T07:44:40.114Z,500.00
2023-04-16T07:45:41.353Z,498.00
2023-04-16T07:46:46.777Z,495.00
2023-04-16T07:47:41.189Z,493.00
2023-04-16T07:48:40.160Z,493.00
2023-04-16T07:49:40.167Z,493.00
2023-04-16T07:50:40.132Z,495.00
2023-04-16T07:51:40.140Z,493.00
2023-04-16T07:52:40.155Z,492.00
2023-04-16T07:53:40.128Z,492.00
2023-04-16T07:54:40.126Z,492.00
2023-04-16T07:55:40.103Z,491.00
2023-04-16T07:56:40.129Z,492.00
2023-04-16T07:59:44.067Z,498.00
2023-04-16T08:00:44.084Z,496.00
2023-04-16T08:01:44.158Z,498.00
2023-04-16T08:02:44.465Z,492.00
2023-04-16T08:03:44.451Z,494.00
2023-04-16T08:04:44.464Z,491.00
2023-04-16T08:05:44.209Z,491.00
2023-04-16T08:06:44.231Z,492.00
2023-04-16T08:07:44.204Z,490.00
2023-04-16T08:08:44.182Z,488.00
2023-04-16T08:09:44.207Z,488.00
2023-04-16T08:10:44.166Z,491.00
2023-04-16T08:11:44.183Z,488.00
2023-04-16T08:12:44.144Z,490.00
2023-04-16T08:13:44.169Z,491.00
2023-04-16T08:14:44.153Z,492.00
2023-04-16T08:15:44.184Z,494.00
2023-04-16T08:16:44.138Z,493.00
2023-04-16T08:17:44.161Z,493.00
2023-04-16T08:18:44.112Z,496.00
2023-04-16T08:19:44.106Z,497.00
2023-04-16T08:20:44.136Z,496.00
2023-04-16T08:21:44.109Z,494.00
2023-04-16T08:22:44.170Z,495.00
2023-04-16T08:23:44.081Z,496.00
2023-04-16T08:24:44.086Z,498.00
2023-04-16T08:25:44.061Z,496.00
2023-04-16T08:26:44.092Z,494.00
2023-04-16T08:27:44.082Z,492.00
2023-04-16T08:28:44.086Z,489.00
2023-04-16T08:29:44.072Z,489.00
2023-04-16T08:30:44.036Z,490.00
2023-04-16T08:31:44.182Z,489.00
2023-04-16T08:32:44.105Z,485.00
2023-04-16T08:33:44.112Z,488.00
2023-04-16T08:34:44.018Z,488.00
2023-04-16T08:35:44.027Z,486.00
2023-04-16T08:36:44.015Z,486.00
2023-04-16T08:37:43.993Z,484.00
2023-04-16T08:38:43.986Z,482.00
2023-04-16T08:39:43.985Z,479.00
2023-04-16T08:40:43.978Z,475.00
2023-04-16T08:41:43.993Z,476.00
2023-04-16T08:42:43.972Z,481.00
2023-04-16T08:43:43.972Z,484.00
2023-04-16T08:44:43.999Z,487.00
2023-04-16T08:45:43.944Z,485.00
2023-04-16T08:46:43.962Z,485.00
2023-04-16T08:47:43.940Z,488.00
2023-04-16T08:48:43.914Z,488.00
2023-04-16T08:49:43.949Z,491.00
2023-04-16T08:50:44.018Z,491.00
2023-04-16T08:51:44.024Z,490.00
2023-04-16T08:52:44.111Z,487.00
2023-04-16T08:53:44.101Z,481.00
2023-04-16T08:54:44.181Z,483.00
2023-04-16T08:55:44.204Z,486.00
2023-04-16T08:56:44.250Z,481.00
2023-04-16T08:57:44.276Z,485.00
2023-04-16T08:58:44.323Z,483.00
2023-04-16T08:59:44.355Z,483.00
2023-04-16T09:00:44.378Z,480.00
2023-04-16T09:01:44.456Z,481.00
2023-04-16T09:02:44.789Z,483.00
2023-04-16T09:03:44.647Z,483.00
2023-04-16T09:04:44.635Z,484.00
2023-04-16T09:05:44.598Z,483.00
2023-04-16T09:06:44.648Z,484.00
2023-04-16T09:07:44.700Z,484.00
2023-04-16T09:08:44.756Z,484.00
2023-04-16T09:09:44.799Z,484.00
2023-04-16T09:10:44.812Z,487.00
2023-04-16T09:11:44.840Z,486.00
2023-04-16T09:12:44.913Z,487.00
2023-04-16T09:13:44.954Z,488.00
2023-04-16T09:14:44.991Z,490.00
2023-04-16T09:15:45.021Z,487.00
2023-04-16T09:16:45.165Z,489.00
2023-04-16T09:17:45.179Z,487.00
2023-04-16T09:18:45.165Z,489.00
2023-04-16T09:19:45.257Z,491.00
2023-04-16T09:20:45.215Z,490.00
2023-04-16T09:21:45.278Z,494.00
2023-04-16T09:22:45.285Z,495.00
2023-04-16T09:23:45.335Z,496.00
2023-04-16T09:24:45.368Z,492.00
2023-04-16T09:25:45.489Z,491.00
2023-04-16T09:26:45.489Z,491.00
2023-04-16T09:27:45.491Z,493.00
2023-04-16T09:28:45.552Z,495.00
2023-04-16T09:29:45.569Z,493.00
2023-04-16T09:30:45.681Z,495.00
2023-04-16T09:31:45.662Z,493.00
2023-04-16T09:32:45.756Z,491.00
2023-04-16T09:33:45.782Z,489.00
2023-04-16T09:34:45.803Z,491.00
2023-04-16T09:35:45.954Z,487.00
2023-04-16T09:36:45.885Z,490.00
2023-04-16T09:37:45.909Z,491.00
2023-04-16T09:38:45.979Z,493.00
2023-04-16T09:39:46.003Z,493.00
2023-04-16T09:40:46.036Z,492.00
2023-04-16T09:41:46.099Z,489.00
2023-04-16T09:42:46.148Z,489.00
2023-04-16T09:43:46.212Z,490.00
2023-04-16T09:44:46.233Z,489.00
2023-04-16T09:45:46.266Z,489.00
2023-04-16T09:46:46.308Z,489.00
2023-04-16T09:47:46.429Z,485.00
2023-04-16T09:48:46.388Z,484.00
2023-04-16T09:49:46.422Z,485.00
2023-04-16T09:50:46.455Z,485.00
2023-04-16T09:51:46.530Z,484.00
2023-04-16T09:52:46.528Z,482.00
2023-04-16T09:53:46.602Z,482.00
2023-04-16T09:54:46.636Z,483.00
2023-04-16T09:55:46.987Z,487.00
2023-04-16T09:56:46.712Z,485.00
2023-04-16T09:57:46.727Z,486.00
2023-04-16T09:58:46.785Z,487.00
2023-04-16T09:59:46.789Z,489.00
2023-04-16T10:00:46.837Z,490.00
2023-04-16T10:01:46.976Z,487.00
2023-04-16T10:02:48.059Z,489.00
2023-04-16T10:03:47.148Z,488.00
2023-04-16T10:04:46.978Z,485.00
2023-04-16T10:05:46.897Z,486.00
2023-04-16T10:06:46.890Z,488.00
2023-04-16T10:07:46.887Z,487.00
2023-04-16T10:08:49.594Z,487.00
2023-04-16T10:09:46.861Z,488.00
2023-04-16T10:10:46.855Z,486.00
2023-04-16T10:11:46.859Z,490.00
2023-04-16T10:12:46.851Z,487.00
2023-04-16T10:13:46.840Z,486.00
2023-04-16T10:14:48.366Z,486.00
2023-04-16T10:15:46.849Z,488.00
2023-04-16T10:16:46.844Z,489.00
2023-04-16T10:17:46.883Z,486.00
2023-04-16T10:18:46.813Z,484.00
2023-04-16T10:19:46.784Z,485.00
2023-04-16T10:20:46.777Z,482.00
2023-04-16T10:21:46.809Z,484.00
2023-04-16T10:22:46.773Z,485.00
2023-04-16T10:23:46.744Z,485.00
2023-04-16T10:24:46.795Z,486.00
2023-04-16T10:25:46.770Z,485.00
2023-04-16T10:26:46.761Z,486.00
2023-04-16T10:27:46.736Z,486.00
2023-04-16T10:28:46.761Z,489.00
2023-04-16T10:29:46.721Z,488.00
2023-04-16T10:30:46.742Z,484.00
2023-04-16T10:31:46.735Z,482.00
2023-04-16T10:32:46.718Z,477.00
2023-04-16T10:33:46.693Z,477.00
2023-04-16T10:34:46.690Z,478.00
2023-04-16T10:35:52.419Z,478.00
2023-04-16T10:36:47.731Z,478.00
2023-04-16T10:37:46.674Z,478.00
2023-04-16T10:38:46.704Z,479.00
2023-04-16T10:39:46.639Z,479.00
2023-04-16T10:40:46.663Z,478.00
2023-04-16T10:41:46.648Z,478.00
2023-04-16T10:42:46.650Z,478.00
2023-04-16T10:43:46.635Z,478.00
2023-04-16T10:44:46.662Z,478.00
2023-04-16T10:45:46.627Z,479.00
2023-04-16T10:46:46.646Z,482.00
2023-04-16T10:47:46.692Z,485.00
2023-04-16T10:48:50.170Z,484.00
2023-04-16T10:49:46.581Z,483.00
2023-04-16T10:50:46.599Z,482.00
2023-04-16T10:51:46.602Z,484.00
2023-04-16T10:52:46.570Z,482.00
2023-04-16T10:53:46.581Z,481.00
2023-04-16T10:54:46.589Z,481.00
2023-04-16T10:55:46.535Z,484.00
2023-04-16T10:56:46.542Z,484.00
2023-04-16T10:57:46.534Z,484.00
2023-04-16T10:58:46.558Z,484.00
2023-04-16T10:59:46.526Z,485.00
2023-04-16T11:00:46.512Z,482.00
2023-04-16T11:01:46.516Z,481.00
2023-04-16T11:02:46.701Z,480.00
2023-04-16T11:03:46.728Z,480.00
2023-04-16T11:04:46.613Z,482.00
2023-04-16T11:05:46.506Z,485.00
2023-04-16T11:06:46.533Z,486.00
2023-04-16T11:07:46.468Z,486.00
2023-04-16T11:09:46.446Z,483.00
2023-04-16T11:10:46.448Z,482.00
2023-04-16T11:11:46.433Z,483.00
2023-04-16T11:12:46.434Z,483.00
2023-04-16T11:13:46.445Z,485.00
2023-04-16T11:14:46.396Z,489.00
2023-04-16T11:15:46.424Z,488.00
2023-04-16T11:16:46.422Z,486.00
2023-04-16T11:17:46.449Z,485.00
2023-04-16T11:18:50.728Z,483.00
2023-04-16T11:19:47.389Z,483.00
2023-04-16T11:20:46.375Z,483.00
2023-04-16T11:21:46.375Z,480.00
2023-04-16T11:22:46.381Z,477.00
2023-04-16T11:23:46.369Z,477.00
2023-04-16T11:24:46.381Z,475.00
2023-04-16T11:25:46.338Z,476.00
2023-04-16T11:26:46.331Z,480.00
2023-04-16T11:27:46.326Z,479.00
2023-04-16T11:28:46.314Z,478.00
2023-04-16T11:29:47.619Z,478.00
2023-04-16T11:30:46.293Z,477.00
2023-04-16T11:31:46.409Z,479.00
2023-04-16T11:32:46.376Z,478.00
2023-04-16T11:33:46.391Z,479.00
2023-04-16T11:34:46.430Z,480.00
2023-04-16T11:35:46.488Z,480.00
2023-04-16T11:36:46.474Z,481.00
2023-04-16T11:37:46.508Z,479.00
2023-04-16T11:38:46.634Z,477.00
2023-04-16T11:39:46.594Z,479.00
2023-04-16T11:40:46.608Z,480.00
2023-04-16T11:41:47.322Z,479.00
2023-04-16T11:42:46.702Z,478.00
2023-04-16T11:43:46.755Z,478.00
2023-04-16T11:44:46.765Z,477.00
2023-04-16T11:45:46.818Z,478.00
2023-04-16T11:46:46.999Z,479.00
2023-04-16T11:47:46.899Z,479.00
2023-04-16T11:48:46.891Z,481.00
2023-04-16T11:49:46.930Z,480.00
2023-04-16T11:50:46.945Z,478.00
2023-04-16T11:51:47.013Z,478.00
2023-04-16T11:52:47.037Z,480.00
2023-04-16T11:53:47.074Z,479.00
2023-04-16T11:54:47.061Z,479.00
2023-04-16T11:55:47.095Z,481.00
2023-04-16T11:56:47.184Z,480.00
2023-04-16T11:57:47.166Z,479.00
2023-04-16T11:58:47.173Z,478.00
2023-04-16T12:00:02.208Z,478.00
2023-04-16T12:00:48.204Z,475.00
2023-04-16T12:01:47.263Z,473.00
2023-04-16T12:02:47.309Z,473.00
2023-04-16T12:03:47.532Z,473.00
2023-04-16T12:04:47.307Z,470.00
2023-04-16T12:05:47.202Z,473.00
2023-04-16T12:06:47.208Z,475.00
2023-04-16T12:07:47.196Z,476.00
2023-04-16T12:08:47.180Z,473.00
2023-04-16T12:09:47.132Z,474.00
2023-04-16T12:10:47.149Z,471.00
2023-04-16T12:11:47.162Z,473.00
2023-04-16T12:12:47.156Z,473.00
2023-04-16T12:13:47.149Z,476.00
2023-04-16T12:14:47.110Z,478.00
2023-04-16T12:15:47.121Z,481.00
2023-04-16T12:16:47.267Z,480.00
2023-04-16T12:17:47.269Z,479.00
2023-04-16T12:18:47.181Z,478.00
2023-04-16T12:19:47.189Z,481.00
2023-04-16T12:20:47.254Z,481.00
2023-04-16T12:21:47.263Z,479.00
2023-04-16T12:22:47.299Z,479.00
2023-04-16T12:23:47.333Z,480.00
2023-04-16T12:24:47.361Z,480.00
2023-04-16T12:25:47.399Z,479.00
2023-04-16T12:26:47.420Z,478.00
2023-04-16T12:27:47.765Z,481.00
2023-04-16T12:28:47.489Z,481.00
2023-04-16T12:29:47.512Z,484.00
2023-04-16T12:30:47.568Z,484.00
2023-04-16T12:31:47.549Z,483.00